Time;durP1;ratioP1;P1;durP2;ratioP2;P2;SDS_P1;SDS_P2;PMS_P1;PMS_P2;Temp;Humidity;BMP_temperature;BMP_pressure;BME280_temperature;BME280_humidity;BME280_pressure;Samples;Min_cycle;Max_cycle;Signal;HPM_P1;HPM_P2
2021/12/26 00:00:55;;;;;;;4.20;1.73;;;-1.60;99.90;;;;;;5071831;28;20021;-76
2021/12/26 00:03:23;;;;;;;3.15;2.10;;;-1.50;99.90;;;;;;5072081;28;20025;-76
2021/12/26 00:05:50;;;;;;;2.80;1.65;;;-1.50;99.90;;;;;;5072420;28;20027;-75
2021/12/26 00:08:16;;;;;;;3.25;2.08;;;-1.40;99.90;;;;;;5071522;28;20036;-76
2021/12/26 00:10:42;;;;;;;2.25;1.83;;;-1.50;99.90;;;;;;5072330;28;20047;-77
2021/12/26 00:13:07;;;;;;;3.95;1.83;;;-1.50;99.90;;;;;;5072430;28;20479;-77
2021/12/26 00:15:33;;;;;;;3.30;2.03;;;-1.60;99.90;;;;;;5071427;28;20107;-76
2021/12/26 00:17:59;;;;;;;2.20;1.75;;;-1.60;99.90;;;;;;5072365;28;20029;-76
2021/12/26 00:20:25;;;;;;;4.88;1.92;;;-1.60;99.90;;;;;;5072047;28;20499;-77
2021/12/26 00:22:50;;;;;;;1.88;1.70;;;-1.70;99.90;;;;;;5071864;28;20028;-76
2021/12/26 00:25:16;;;;;;;4.57;1.77;;;-1.70;99.90;;;;;;5071778;28;20043;-77
2021/12/26 00:27:42;;;;;;;1.98;1.30;;;-1.70;99.90;;;;;;5072500;28;20112;-77
2021/12/26 00:30:15;;;;;;;4.18;2.05;;;-1.80;99.90;;;;;;5071208;28;20017;-76
2021/12/26 00:32:42;;;;;;;2.28;1.88;;;-1.80;99.90;;;;;;5072336;28;20091;-76
2021/12/26 00:35:10;;;;;;;2.80;1.80;;;-1.80;99.90;;;;;;5071421;28;20465;-76
2021/12/26 00:37:35;;;;;;;2.33;1.65;;;-1.80;99.90;;;;;;5072258;28;20037;-75
2021/12/26 00:40:02;;;;;;;2.90;1.90;;;-1.90;99.90;;;;;;5072443;28;20025;-76
2021/12/26 00:42:28;;;;;;;2.72;1.67;;;-1.90;99.90;;;;;;5071293;28;20020;-75
2021/12/26 00:44:53;;;;;;;2.20;1.60;;;-1.90;99.90;;;;;;5072428;28;20028;-76
2021/12/26 00:47:19;;;;;;;4.78;2.15;;;-1.90;99.90;;;;;;5072121;28;20036;-75
2021/12/26 00:49:44;;;;;;;3.22;1.92;;;-1.90;99.90;;;;;;5071571;28;20023;-76
2021/12/26 00:52:10;;;;;;;1.40;1.30;;;-1.90;99.90;;;;;;5071676;28;20048;-75
2021/12/26 00:54:36;;;;;;;3.33;1.77;;;-1.90;99.90;;;;;;5071844;28;20067;-76
2021/12/26 00:57:02;;;;;;;2.45;1.70;;;-1.90;99.90;;;;;;5071828;28;20075;-76
2021/12/26 00:59:28;;;;;;;2.45;1.65;;;-1.90;99.90;;;;;;5074505;28;20025;-76
2021/12/26 01:01:54;;;;;;;2.55;1.42;;;-1.90;99.90;;;;;;5075628;28;20115;-76
2021/12/26 01:04:21;;;;;;;2.83;1.58;;;-1.90;99.90;;;;;;5074506;28;20020;-76
2021/12/26 01:06:47;;;;;;;2.33;1.55;;;-2.00;99.90;;;;;;5075475;28;20384;-76
2021/12/26 01:09:18;;;;;;;2.55;1.55;;;-2.00;99.90;;;;;;5074832;28;20020;-76
2021/12/26 01:11:49;;;;;;;4.70;1.73;;;-2.00;99.90;;;;;;5074439;28;20066;-76
2021/12/26 01:14:17;;;;;;;1.65;1.42;;;-2.00;99.90;;;;;;5074329;28;20108;-77
2021/12/26 01:16:44;;;;;;;2.22;1.85;;;-2.00;99.90;;;;;;5075213;28;20070;-75
2021/12/26 01:19:14;;;;;;;3.10;1.77;;;-2.00;99.90;;;;;;5074575;28;20032;-76
2021/12/26 01:21:42;;;;;;;4.10;1.48;;;-2.00;99.90;;;;;;5075339;28;20028;-76
2021/12/26 01:24:12;;;;;;;2.13;1.67;;;-2.00;99.90;;;;;;5074810;28;20104;-75
2021/12/26 01:26:38;;;;;;;1.95;1.63;;;-2.00;99.90;;;;;;5077395;28;20104;-77
2021/12/26 01:29:05;;;;;;;2.03;1.80;;;-2.10;99.90;;;;;;5074681;28;20028;-76
2021/12/26 01:31:31;;;;;;;4.05;1.75;;;-2.10;99.90;;;;;;5074042;28;20032;-76
2021/12/26 01:34:00;;;;;;;1.80;1.50;;;-2.20;99.90;;;;;;5074686;28;20028;-76
2021/12/26 01:36:28;;;;;;;2.08;1.77;;;-2.20;99.90;;;;;;5074921;28;20036;-76
2021/12/26 01:38:56;;;;;;;3.58;1.90;;;-2.20;99.90;;;;;;5076500;28;20039;-76
2021/12/26 01:41:26;;;;;;;3.60;1.67;;;-2.30;99.90;;;;;;5074712;28;20395;-76
2021/12/26 01:43:57;;;;;;;4.75;1.75;;;-2.30;99.90;;;;;;5073910;28;20461;-76
2021/12/26 01:46:24;;;;;;;2.95;1.60;;;-2.20;99.90;;;;;;5072806;28;20476;-76
2021/12/26 01:49:09;;;;;;;1.75;1.40;;;-2.20;99.90;;;;;;5073886;28;20116;-76
2021/12/26 01:51:35;;;;;;;2.35;1.90;;;-2.20;99.90;;;;;;5074069;28;20036;-76
2021/12/26 01:54:06;;;;;;;3.75;1.65;;;-2.20;99.90;;;;;;5073389;28;20044;-74
2021/12/26 01:56:31;;;;;;;;;;;-2.20;99.90;;;;;;5075042;28;20029;-76
2021/12/26 01:58:57;;;;;;;4.00;1.90;;;-2.10;99.90;;;;;;5074216;28;20018;-75
2021/12/26 02:01:23;;;;;;;2.33;1.75;;;-2.10;99.90;;;;;;5073563;28;20032;-77
2021/12/26 02:03:49;;;;;;;2.72;1.85;;;-2.10;99.90;;;;;;5074299;28;20060;-75
2021/12/26 02:06:16;;;;;;;2.85;1.88;;;-1.90;99.90;;;;;;5073901;28;20059;-76
2021/12/26 02:08:42;;;;;;;2.20;1.70;;;-1.80;99.90;;;;;;5073625;28;20039;-75
2021/12/26 02:11:08;;;;;;;2.67;1.85;;;-1.80;99.90;;;;;;5073597;28;20037;-75
2021/12/26 02:13:37;;;;;;;5.15;1.60;;;-1.60;99.90;;;;;;5073195;28;20531;-75
2021/12/26 02:16:04;;;;;;;2.15;1.63;;;-1.60;99.90;;;;;;5073620;28;20032;-75
2021/12/26 02:18:29;;;;;;;5.93;1.73;;;-1.60;99.90;;;;;;5074165;28;20025;-77
2021/12/26 02:28:37;;;;;;;2.22;1.48;;;-1.60;99.90;;;;;;5072505;28;20020;-76
2021/12/26 02:31:04;;;;;;;1.67;1.42;;;-1.60;99.90;;;;;;5073446;28;20036;-76
2021/12/26 02:33:30;;;;;;;2.85;1.88;;;-1.60;99.90;;;;;;5073599;28;20048;-76
2021/12/26 02:35:55;;;;;;;7.25;1.65;;;-1.60;99.90;;;;;;5072846;28;20491;-75
2021/12/26 02:38:21;;;;;;;2.22;1.60;;;-1.60;99.90;;;;;;5073420;28;20063;-76
2021/12/26 02:40:50;;;;;;;3.45;1.90;;;-1.60;99.90;;;;;;5073731;28;20024;-75
2021/12/26 02:43:17;;;;;;;2.58;1.80;;;-1.60;99.90;;;;;;5072592;28;20059;-75
2021/12/26 02:45:43;;;;;;;2.78;1.67;;;-1.60;99.90;;;;;;5073443;28;20033;-76
2021/12/26 02:48:10;;;;;;;4.05;1.60;;;-1.60;99.90;;;;;;5072919;28;20032;-76
2021/12/26 02:50:38;;;;;;;4.40;1.60;;;-1.60;99.90;;;;;;5071923;28;20025;-76
2021/12/26 02:53:05;;;;;;;2.97;1.42;;;-1.60;99.90;;;;;;5072651;28;20799;-75
2021/12/26 02:55:31;;;;;;;2.03;1.50;;;-1.60;99.90;;;;;;5073321;28;20418;-76
2021/12/26 02:58:01;;;;;;;2.97;1.65;;;-1.60;99.90;;;;;;5072455;28;20104;-76
2021/12/26 03:00:30;;;;;;;3.60;1.58;;;-1.60;99.90;;;;;;5073053;28;20044;-76
2021/12/26 03:02:59;;;;;;;3.03;1.38;;;-1.70;99.90;;;;;;5072425;28;20047;-74
2021/12/26 03:05:29;;;;;;;1.35;1.20;;;-1.70;99.90;;;;;;5072541;28;20028;-76
2021/12/26 03:07:54;;;;;;;1.42;1.33;;;-1.70;99.90;;;;;;5072934;28;20099;-76
2021/12/26 03:10:24;;;;;;;2.35;1.80;;;-1.60;99.90;;;;;;5072391;28;20158;-76
2021/12/26 03:12:56;;;;;;;2.78;1.60;;;-1.60;99.90;;;;;;5073377;28;20123;-76
2021/12/26 03:15:23;;;;;;;2.58;1.30;;;-1.60;99.90;;;;;;5072552;28;20035;-74
2021/12/26 03:17:49;;;;;;;1.48;1.23;;;-1.60;99.90;;;;;;5072083;28;20361;-75
2021/12/26 03:20:19;;;;;;;2.55;1.70;;;-1.60;99.90;;;;;;5072734;28;20103;-76
2021/12/26 03:22:45;;;;;;;4.80;2.00;;;-1.50;99.90;;;;;;5072908;28;20054;-75
2021/12/26 03:25:21;;;;;;;3.03;1.60;;;-1.50;99.90;;;;;;5072015;28;20534;-76
2021/12/26 03:27:47;;;;;;;2.03;1.33;;;-1.50;99.90;;;;;;5072811;28;20028;-75
2021/12/26 03:30:16;;;;;;;1.85;1.30;;;-1.50;99.90;;;;;;5072833;28;20035;-75
2021/12/26 03:32:42;;;;;;;2.58;1.73;;;-1.50;99.90;;;;;;5071899;28;20507;-74
2021/12/26 03:35:09;;;;;;;1.92;1.50;;;-1.50;99.90;;;;;;5073014;28;20024;-74
2021/12/26 03:37:35;;;;;;;3.33;1.55;;;-1.60;99.90;;;;;;5073792;28;20028;-77
2021/12/26 03:40:01;;;;;;;1.77;1.35;;;-1.70;99.90;;;;;;5072686;28;20020;-75
2021/12/26 03:42:27;;;;;;;2.58;1.52;;;-1.80;99.90;;;;;;5072226;28;20028;-74
2021/12/26 03:44:52;;;;;;;5.38;1.60;;;-1.80;99.90;;;;;;5071833;28;20031;-74
2021/12/26 03:47:19;;;;;;;4.05;1.73;;;-1.80;99.90;;;;;;5072418;28;20025;-75
2021/12/26 03:49:47;;;;;;;1.85;1.60;;;-1.80;99.90;;;;;;5072646;28;20024;-74
2021/12/26 03:52:13;;;;;;;7.00;1.65;;;-1.90;99.90;;;;;;5071581;28;20722;-74
2021/12/26 03:54:39;;;;;;;2.53;1.75;;;-1.90;99.90;;;;;;5073519;28;20036;-76
2021/12/26 03:57:05;;;;;;;2.00;1.65;;;-1.90;99.90;;;;;;5072093;28;20181;-74
2021/12/26 03:59:31;;;;;;;4.65;1.70;;;-1.80;99.90;;;;;;5072369;28;20490;-75
2021/12/26 04:01:57;;;;;;;2.03;1.58;;;-1.80;99.90;;;;;;5072728;28;20040;-75
2021/12/26 04:04:24;;;;;;;1.85;1.33;;;-1.80;99.90;;;;;;5072151;28;20116;-76
2021/12/26 04:06:50;;;;;;;2.72;1.73;;;-1.90;99.90;;;;;;5072233;28;20028;-76
2021/12/26 04:09:15;;;;;;;4.28;1.50;;;-1.80;99.90;;;;;;5072026;28;20028;-75
2021/12/26 04:11:42;;;;;;;1.98;1.40;;;-1.80;99.90;;;;;;5072367;28;20423;-76
2021/12/26 04:14:08;;;;;;;2.38;1.38;;;-1.80;99.90;;;;;;5071796;28;20040;-76
2021/12/26 04:16:34;;;;;;;1.40;1.30;;;-1.80;99.90;;;;;;5072545;28;20029;-76
2021/12/26 04:18:59;;;;;;;4.45;1.70;;;-1.90;99.90;;;;;;5072127;28;20062;-76
2021/12/26 04:21:25;;;;;;;2.92;1.67;;;-1.90;99.90;;;;;;5071509;28;20043;-76
2021/12/26 04:23:51;;;;;;;2.22;1.25;;;-1.90;99.90;;;;;;5072743;28;20024;-76
2021/12/26 04:26:17;;;;;;;5.40;1.73;;;-2.00;99.90;;;;;;5072296;28;20349;-76
2021/12/26 04:28:42;;;;;;;2.20;1.30;;;-1.80;99.90;;;;;;5071715;28;20025;-75
2021/12/26 04:31:08;;;;;;;2.13;1.63;;;-2.00;99.90;;;;;;5071866;28;20048;-74
2021/12/26 04:33:33;;;;;;;2.42;1.73;;;-2.10;99.90;;;;;;5073253;28;20032;-75
2021/12/26 04:35:59;;;;;;;5.15;1.80;;;-2.10;99.90;;;;;;5075162;28;20029;-75
2021/12/26 04:38:25;;;;;;;1.67;1.55;;;-2.10;99.90;;;;;;5076041;28;20539;-75
2021/12/26 04:40:51;;;;;;;2.92;1.67;;;-2.10;99.90;;;;;;5076030;28;20013;-76
2021/12/26 04:43:20;;;;;;;2.35;1.63;;;-2.10;99.90;;;;;;5075740;28;20029;-76
2021/12/26 04:45:46;;;;;;;2.15;1.52;;;-2.20;99.90;;;;;;5076011;28;20047;-76
2021/12/26 04:48:12;;;;;;;2.63;1.75;;;-2.20;99.90;;;;;;5075402;28;20078;-76
2021/12/26 04:50:37;;;;;;;1.95;1.55;;;-2.30;99.90;;;;;;5075563;28;20376;-76
2021/12/26 04:53:03;;;;;;;2.65;2.13;;;-2.30;99.90;;;;;;5075183;28;20048;-77
2021/12/26 04:55:29;;;;;;;1.77;1.65;;;-2.30;99.90;;;;;;5075451;28;20052;-75
2021/12/26 04:57:56;;;;;;;3.20;1.95;;;-2.30;99.90;;;;;;5075491;28;20056;-75
2021/12/26 05:00:26;;;;;;;3.40;1.70;;;-2.30;99.90;;;;;;5075460;28;20031;-76
2021/12/26 05:02:52;;;;;;;2.42;1.60;;;-2.30;99.90;;;;;;5075403;28;20025;-76
2021/12/26 05:05:18;;;;;;;3.08;1.60;;;-2.20;99.90;;;;;;5075412;28;20036;-74
2021/12/26 05:07:43;;;;;;;2.10;1.90;;;-2.30;99.90;;;;;;5075306;28;20016;-75
2021/12/26 05:10:12;;;;;;;2.22;1.65;;;-2.30;99.90;;;;;;5074375;28;20111;-75
2021/12/26 05:12:37;;;;;;;3.00;1.42;;;-2.30;99.90;;;;;;5075403;28;20500;-74
2021/12/26 05:15:05;;;;;;;2.38;1.90;;;-2.30;99.90;;;;;;5074674;28;20017;-75
2021/12/26 05:17:31;;;;;;;4.68;1.63;;;-2.30;99.90;;;;;;5074724;28;20110;-75
2021/12/26 05:19:57;;;;;;;2.42;1.77;;;-2.20;99.90;;;;;;5074871;28;20464;-75
2021/12/26 05:22:22;;;;;;;3.17;1.67;;;-2.30;99.90;;;;;;5075157;28;20101;-75
2021/12/26 05:24:48;;;;;;;2.67;1.60;;;-2.20;99.90;;;;;;5074401;28;20013;-76
2021/12/26 05:27:15;;;;;;;1.88;1.50;;;-2.20;99.90;;;;;;5074840;28;20024;-76
2021/12/26 05:29:40;;;;;;;1.77;1.50;;;-2.30;99.90;;;;;;5075113;28;20111;-76
2021/12/26 05:32:07;;;;;;;2.47;2.13;;;-2.30;99.90;;;;;;5073700;28;20128;-75
2021/12/26 05:34:32;;;;;;;4.20;2.00;;;-2.30;99.90;;;;;;5075266;28;20104;-74
2021/12/26 05:36:58;;;;;;;2.17;1.60;;;-2.30;99.90;;;;;;5074687;28;20515;-75
2021/12/26 05:39:23;;;;;;;3.08;1.80;;;-2.30;99.90;;;;;;5073911;28;20028;-75
2021/12/26 05:41:49;;;;;;;2.78;1.65;;;-2.30;99.90;;;;;;5074983;28;20093;-75
2021/12/26 05:44:15;;;;;;;3.30;2.08;;;-2.40;99.90;;;;;;5074279;28;20028;-76
2021/12/26 05:46:41;;;;;;;1.70;1.60;;;-2.40;99.90;;;;;;5074039;28;20036;-75
2021/12/26 05:49:07;;;;;;;3.28;1.95;;;-2.40;99.90;;;;;;5074621;28;20029;-76
2021/12/26 05:51:32;;;;;;;4.07;2.08;;;-2.40;99.90;;;;;;5074403;28;20033;-75
2021/12/26 05:53:58;;;;;;;3.22;1.70;;;-2.30;99.90;;;;;;5075338;28;20044;-81
2021/12/26 05:56:24;;;;;;;1.98;1.40;;;-2.40;99.90;;;;;;5075412;28;20191;-75
2021/12/26 05:58:55;;;;;;;2.28;1.63;;;-2.30;99.90;;;;;;5073369;28;20596;-75
2021/12/26 06:01:21;;;;;;;2.45;1.90;;;-2.30;99.90;;;;;;5084725;28;20495;-77
2021/12/26 06:03:47;;;;;;;3.20;2.08;;;-2.40;99.90;;;;;;5073653;28;20040;-75
2021/12/26 06:06:12;;;;;;;1.88;1.77;;;-2.40;99.90;;;;;;5072529;28;20178;-76
2021/12/26 06:08:38;;;;;;;2.63;1.73;;;-2.30;99.90;;;;;;5077492;28;20016;-75
2021/12/26 06:11:03;;;;;;;1.85;1.45;;;-2.40;99.90;;;;;;5078462;28;20046;-75
2021/12/26 06:13:31;;;;;;;2.50;1.85;;;-2.40;99.90;;;;;;5075765;28;20423;-75
2021/12/26 06:15:57;;;;;;;2.40;1.73;;;-2.30;99.90;;;;;;5073410;28;20020;-76
2021/12/26 06:18:22;;;;;;;3.85;2.00;;;-2.40;99.90;;;;;;5073055;28;20024;-76
2021/12/26 06:20:48;;;;;;;3.15;2.10;;;-2.40;99.90;;;;;;5072793;28;20096;-76
2021/12/26 06:23:14;;;;;;;1.45;1.35;;;-2.40;99.90;;;;;;5073579;28;20411;-76
2021/12/26 06:25:39;;;;;;;3.00;1.90;;;-2.40;99.90;;;;;;5073316;28;20017;-77
2021/12/26 06:28:05;;;;;;;2.90;1.80;;;-2.40;99.90;;;;;;5080068;28;20028;-77
2021/12/26 06:30:31;;;;;;;2.47;1.67;;;-2.40;99.90;;;;;;5082914;28;20016;-76
2021/12/26 06:32:57;;;;;;;2.75;1.73;;;-2.30;99.90;;;;;;5072890;28;20085;-76
2021/12/26 06:35:22;;;;;;;3.25;2.00;;;-2.40;99.90;;;;;;5073558;28;20028;-75
2021/12/26 06:37:48;;;;;;;5.35;2.20;;;-2.30;99.90;;;;;;5089386;28;20015;-76
2021/12/26 06:40:14;;;;;;;3.60;1.95;;;-2.30;99.90;;;;;;5079904;28;20115;-75
2021/12/26 06:42:43;;;;;;;1.67;1.50;;;-2.30;99.90;;;;;;5075694;28;20028;-75
2021/12/26 06:45:11;;;;;;;2.28;1.80;;;-2.40;99.90;;;;;;5091730;28;20024;-76
2021/12/26 06:47:37;;;;;;;3.00;1.90;;;-2.40;99.90;;;;;;5073885;28;20019;-76
2021/12/26 06:50:04;;;;;;;2.28;1.90;;;-2.40;99.90;;;;;;5076964;28;20016;-76
2021/12/26 06:52:29;;;;;;;2.70;1.80;;;-2.40;99.90;;;;;;5071625;28;20095;-75
2021/12/26 06:54:55;;;;;;;3.38;1.88;;;-2.40;99.90;;;;;;5071789;28;20101;-74
2021/12/26 06:57:21;;;;;;;2.47;1.73;;;-2.40;99.90;;;;;;5083592;28;20032;-75
2021/12/26 06:59:47;;;;;;;2.38;1.83;;;-2.40;99.90;;;;;;5093158;28;20111;-76
2021/12/26 07:02:13;;;;;;;1.73;1.60;;;-2.30;99.90;;;;;;5092860;28;20050;-76
2021/12/26 07:04:39;;;;;;;4.28;1.88;;;-2.40;99.90;;;;;;5085290;28;20476;-76
2021/12/26 07:07:04;;;;;;;2.17;1.90;;;-2.30;99.90;;;;;;5081124;28;20020;-76
2021/12/26 07:09:30;;;;;;;4.10;1.70;;;-2.30;99.90;;;;;;5084087;28;20044;-75
2021/12/26 07:11:55;;;;;;;3.53;1.95;;;-2.30;99.90;;;;;;5087968;28;20039;-75
2021/12/26 07:14:21;;;;;;;3.63;1.90;;;-2.30;99.90;;;;;;5086017;28;20078;-74
2021/12/26 07:16:47;;;;;;;2.38;1.58;;;-1.60;99.90;;;;;;5090426;28;20106;-74
2021/12/26 07:19:12;;;;;;;3.38;2.22;;;-2.40;99.90;;;;;;5088132;28;20028;-75
2021/12/26 07:21:40;;;;;;;1.48;1.30;;;-2.40;99.90;;;;;;5083841;28;20135;-76
2021/12/26 07:24:06;;;;;;;2.67;1.80;;;-2.40;99.90;;;;;;5086012;28;20199;-76
2021/12/26 07:26:31;;;;;;;2.60;1.83;;;-2.40;99.90;;;;;;5082326;28;20517;-77
2021/12/26 07:28:57;;;;;;;2.58;1.90;;;-2.40;99.90;;;;;;5078908;28;20016;-75
2021/12/26 07:31:23;;;;;;;2.83;1.63;;;-2.40;99.90;;;;;;5085498;28;20729;-76
2021/12/26 07:33:48;;;;;;;4.15;1.88;;;-2.40;99.90;;;;;;5091812;28;20503;-76
2021/12/26 07:36:14;;;;;;;3.85;1.73;;;-2.40;99.90;;;;;;5090754;28;21678;-74
2021/12/26 07:38:40;;;;;;;2.88;1.73;;;-2.40;99.90;;;;;;5088337;28;21526;-74
2021/12/26 07:41:05;;;;;;;2.83;1.70;;;-2.40;99.90;;;;;;5091111;28;20027;-76
2021/12/26 07:43:31;;;;;;;4.00;1.73;;;-2.40;99.90;;;;;;5092174;28;20109;-76
2021/12/26 07:45:56;;;;;;;3.15;2.10;;;-2.40;99.90;;;;;;5078891;28;20025;-76
2021/12/26 07:48:22;;;;;;;4.10;2.20;;;-2.30;99.90;;;;;;5074845;28;20046;-81
2021/12/26 07:50:48;;;;;;;2.03;1.67;;;-2.30;99.90;;;;;;5081915;28;21456;-77
2021/12/26 07:53:13;;;;;;;2.65;1.83;;;-2.30;99.90;;;;;;5084201;28;20063;-81
2021/12/26 07:55:39;;;;;;;2.50;1.80;;;-2.30;99.90;;;;;;5088688;28;20082;-82
2021/12/26 07:58:05;;;;;;;3.75;1.90;;;-2.30;99.90;;;;;;5089069;28;20030;-83
2021/12/26 08:00:31;;;;;;;1.73;1.55;;;-2.30;99.90;;;;;;5092198;28;20031;-84
2021/12/26 08:02:58;;;;;;;2.50;1.65;;;-2.30;99.90;;;;;;5089159;28;20029;-84
2021/12/26 08:05:23;;;;;;;2.40;1.73;;;-2.30;99.90;;;;;;5091457;28;20029;-81
2021/12/26 08:07:49;;;;;;;3.20;2.30;;;-2.30;99.90;;;;;;5094194;28;20151;-81
2021/12/26 08:10:15;;;;;;;4.00;1.88;;;-2.30;99.90;;;;;;5095161;28;20495;-78
2021/12/26 08:12:41;;;;;;;2.17;1.77;;;-2.30;99.90;;;;;;5104957;28;20070;-79
2021/12/26 08:15:07;;;;;;;3.20;1.70;;;-2.20;99.90;;;;;;5095904;28;20020;-78
2021/12/26 08:17:33;;;;;;;5.30;2.20;;;-2.10;99.90;;;;;;5089379;28;20040;-81
2021/12/26 08:19:59;;;;;;;2.58;1.85;;;-2.10;99.90;;;;;;5091124;28;20039;-82
2021/12/26 08:22:25;;;;;;;5.55;2.17;;;-2.00;99.90;;;;;;5093882;28;20503;-80
2021/12/26 08:24:54;;;;;;;3.60;1.77;;;-2.00;99.90;;;;;;5091213;28;20020;-81
2021/12/26 08:27:20;;;;;;;4.70;2.50;;;-2.00;99.90;;;;;;5093336;28;20051;-81
2021/12/26 08:29:47;;;;;;;2.75;2.25;;;-2.00;99.90;;;;;;5086721;28;20052;-80
2021/12/26 08:32:15;;;;;;;2.90;2.08;;;-2.10;99.90;;;;;;5092186;28;20035;-80
2021/12/26 08:34:43;;;;;;;2.45;2.05;;;-2.00;99.90;;;;;;5086377;28;20013;-80
2021/12/26 08:37:09;;;;;;;2.40;1.85;;;-2.00;99.90;;;;;;5088689;28;20059;-77
2021/12/26 08:39:41;;;;;;;3.42;1.85;;;-2.00;99.90;;;;;;5095564;28;20019;-76
2021/12/26 08:42:08;;;;;;;3.80;2.05;;;-1.90;99.90;;;;;;5093766;28;20055;-82
2021/12/26 08:44:35;;;;;;;5.00;2.00;;;-1.90;99.90;;;;;;5085616;28;20032;-83
2021/12/26 08:47:05;;;;;;;3.13;2.17;;;-1.90;99.90;;;;;;5079446;28;20051;-80
2021/12/26 08:49:31;;;;;;;2.63;2.15;;;-1.80;99.90;;;;;;5088876;28;20020;-81
2021/12/26 08:51:58;;;;;;;3.10;2.22;;;-1.80;99.90;;;;;;5096760;28;20047;-82
2021/12/26 08:54:26;;;;;;;5.55;2.47;;;-1.80;99.90;;;;;;5097761;28;20039;-85
2021/12/26 08:56:53;;;;;;;3.78;2.30;;;-1.70;99.90;;;;;;5110707;28;20016;-88
2021/12/26 08:59:19;;;;;;;3.25;2.30;;;-1.60;99.90;;;;;;5082525;28;20030;-86
2021/12/26 09:01:46;;;;;;;4.03;1.75;;;-1.60;99.90;;;;;;5083430;28;20029;-80
2021/12/26 09:04:12;;;;;;;3.25;2.17;;;-1.60;99.90;;;;;;5096985;28;20064;-81
2021/12/26 09:06:38;;;;;;;4.82;2.35;;;-1.60;99.90;;;;;;5081628;28;20530;-83
2021/12/26 09:09:04;;;;;;;2.63;1.83;;;-1.60;99.90;;;;;;5076856;28;20033;-82
2021/12/26 09:11:29;;;;;;;3.70;2.50;;;-1.60;99.90;;;;;;5077503;28;20115;-78
2021/12/26 09:13:55;;;;;;;3.15;2.28;;;-1.50;99.90;;;;;;5076721;28;20021;-78
2021/12/26 09:16:24;;;;;;;2.50;1.85;;;-1.50;99.90;;;;;;5072978;28;20024;-81
2021/12/26 09:18:50;;;;;;;3.28;2.17;;;-1.40;99.90;;;;;;5073616;28;20044;-82
2021/12/26 09:21:16;;;;;;;4.55;2.30;;;-1.40;99.90;;;;;;5081175;28;20025;-88
2021/12/26 09:23:44;;;;;;;5.88;3.67;;;-1.30;99.90;;;;;;5088192;28;20020;-87
2021/12/26 09:26:10;;;;;;;2.75;1.88;;;-1.30;99.90;;;;;;5083256;28;20028;-83
2021/12/26 09:28:38;;;;;;;3.47;2.42;;;-1.30;99.90;;;;;;5106104;28;20031;-89
2021/12/26 09:31:05;;;;;;;3.22;2.10;;;-1.20;99.90;;;;;;5109832;28;20028;-84
2021/12/26 09:33:30;;;;;;;3.28;2.17;;;-1.20;99.90;;;;;;5104554;28;20028;-86
2021/12/26 09:35:56;;;;;;;2.75;2.25;;;-1.20;99.90;;;;;;5104808;28;20052;-86
2021/12/26 09:38:22;;;;;;;2.67;2.13;;;-1.20;99.90;;;;;;5105771;28;20323;-87
2021/12/26 09:40:48;;;;;;;4.78;2.50;;;-1.20;99.90;;;;;;5104530;28;20016;-87
2021/12/26 09:43:19;;;;;;;3.55;2.45;;;-1.10;99.90;;;;;;5102749;28;20028;-86
2021/12/26 09:45:45;;;;;;;3.13;2.35;;;-1.10;99.90;;;;;;5101041;28;20057;-86
2021/12/26 09:48:10;;;;;;;4.10;3.20;;;-1.10;99.90;;;;;;5095692;28;20024;-87
2021/12/26 09:50:36;;;;;;;4.90;2.28;;;-1.10;99.90;;;;;;5095501;28;20074;-85
2021/12/26 09:53:01;;;;;;;3.75;2.78;;;-1.00;99.90;;;;;;5100021;28;20131;-85
2021/12/26 09:55:29;;;;;;;4.95;2.58;;;-1.00;99.90;;;;;;5104534;28;20027;-86
2021/12/26 09:57:55;;;;;;;3.80;2.15;;;-0.90;99.90;;;;;;5103008;28;20502;-86
2021/12/26 10:00:25;;;;;;;3.58;2.55;;;-0.80;99.90;;;;;;5111674;28;20016;-80
2021/12/26 10:03:18;;;;;;;2.80;2.42;;;-0.70;99.90;;;;;;5106584;28;20028;-81
2021/12/26 10:06:06;;;;;;;4.13;2.60;;;-0.60;99.90;;;;;;5084625;28;20139;-81
2021/12/26 10:08:33;;;;;;;6.20;2.53;;;-0.40;99.90;;;;;;5093640;28;20585;-74
2021/12/26 10:11:14;;;;;;;4.18;2.42;;;-0.30;99.90;;;;;;5111287;28;20039;-74
2021/12/26 10:13:52;;;;;;;4.70;2.72;;;-0.20;99.90;;;;;;5088521;28;20031;-73
2021/12/26 10:16:22;;;;;;;5.10;3.03;;;-0.10;99.90;;;;;;5081833;28;20090;-72
2021/12/26 10:18:48;;;;;;;4.87;3.00;;;0.00;99.90;;;;;;5083797;28;20032;-73
2021/12/26 10:21:34;;;;;;;4.07;2.70;;;0.10;99.90;;;;;;5085207;28;20024;-72
2021/12/26 10:24:03;;;;;;;4.90;3.10;;;0.10;99.90;;;;;;5087125;28;20115;-81
2021/12/26 10:26:32;;;;;;;4.60;3.22;;;0.20;99.90;;;;;;5091738;28;20546;-77
2021/12/26 10:29:19;;;;;;;7.85;3.42;;;0.20;99.90;;;;;;5106613;28;20028;-77
2021/12/26 10:32:05;;;;;;;8.02;3.28;;;0.40;99.90;;;;;;5092610;28;20044;-74
2021/12/26 10:34:37;;;;;;;3.75;2.30;;;0.40;99.90;;;;;;5105163;28;20070;-76
2021/12/26 10:37:06;;;;;;;3.60;2.70;;;0.50;99.90;;;;;;5086995;28;20098;-77
2021/12/26 10:39:42;;;;;;;5.18;3.35;;;0.50;99.90;;;;;;5105285;28;20085;-76
2021/12/26 10:42:13;;;;;;;5.25;3.30;;;0.60;99.90;;;;;;5095274;28;20047;-76
2021/12/26 10:44:57;;;;;;;4.40;3.22;;;0.60;99.90;;;;;;5089102;28;20016;-74
2021/12/26 10:47:29;;;;;;;4.13;3.22;;;0.70;99.90;;;;;;5082146;28;20503;-76
2021/12/26 10:49:56;;;;;;;5.13;3.03;;;0.70;99.90;;;;;;5090824;28;20035;-74
2021/12/26 10:52:26;;;;;;;4.20;3.05;;;0.70;99.90;;;;;;5088943;28;20047;-74
2021/12/26 10:55:00;;;;;;;5.03;3.55;;;0.80;99.90;;;;;;5092751;28;20533;-74
2021/12/26 10:57:30;;;;;;;5.10;3.60;;;0.70;99.90;;;;;;5090621;28;20028;-73
2021/12/26 11:00:26;;;;;;;7.15;4.65;;;0.80;99.90;;;;;;5092141;28;20484;-74
2021/12/26 11:03:02;;;;;;;10.25;3.40;;;0.80;99.90;;;;;;5082182;28;20027;-75
2021/12/26 11:05:38;;;;;;;6.20;3.92;;;0.90;99.90;;;;;;5092896;28;20139;-74
2021/12/26 11:08:06;;;;;;;4.80;3.25;;;0.90;99.90;;;;;;5090725;28;20024;-74
2021/12/26 11:10:37;;;;;;;10.65;3.85;;;1.00;99.90;;;;;;5085162;28;20020;-75
2021/12/26 11:13:03;;;;;;;;;;;1.00;99.90;;;;;;5088274;28;20373;-74
2021/12/26 11:15:35;;;;;;;10.93;5.93;;;1.00;99.90;;;;;;5081279;28;19939;-74
2021/12/26 11:18:08;;;;;;;24.55;8.27;;;1.00;99.90;;;;;;5105963;28;20016;-75
2021/12/26 11:20:38;;;;;;;23.17;8.07;;;1.10;99.90;;;;;;5114332;28;20077;-74
2021/12/26 11:23:11;;;;;;;13.88;6.90;;;1.10;99.90;;;;;;5092716;28;20028;-75
2021/12/26 11:25:39;;;;;;;22.92;8.43;;;1.10;99.90;;;;;;5080988;28;20031;-74
2021/12/26 11:28:04;;;;;;;16.38;5.05;;;1.10;99.90;;;;;;5109371;28;20028;-74
2021/12/26 11:30:30;;;;;;;14.30;6.80;;;1.10;99.90;;;;;;5093366;28;20039;-74
2021/12/26 11:32:57;;;;;;;20.75;7.57;;;1.20;99.90;;;;;;5106513;28;20076;-73
2021/12/26 11:35:23;;;;;;;15.65;7.07;;;1.20;99.90;;;;;;5111413;28;20023;-74
2021/12/26 11:37:50;;;;;;;26.17;9.25;;;1.20;99.90;;;;;;5098152;28;20024;-74
2021/12/26 11:40:16;;;;;;;12.95;6.57;;;1.20;99.90;;;;;;5090392;28;20080;-73
2021/12/26 11:43:00;;;;;;;7.55;4.68;;;1.20;99.90;;;;;;5089671;28;20028;-73
2021/12/26 11:45:50;;;;;;;8.77;6.20;;;1.20;99.90;;;;;;5101131;28;20030;-74
2021/12/26 11:48:52;;;;;;;7.28;4.70;;;1.30;99.90;;;;;;5087215;28;20032;-73
2021/12/26 11:51:20;;;;;;;4.53;3.78;;;1.30;99.90;;;;;;5092682;28;20041;-75
2021/12/26 11:54:00;;;;;;;6.88;4.10;;;1.30;99.90;;;;;;5093245;28;20066;-73
2021/12/26 11:56:37;;;;;;;8.20;5.22;;;1.30;99.90;;;;;;5111245;28;20436;-74
2021/12/26 11:59:06;;;;;;;5.55;4.30;;;1.30;99.90;;;;;;5110247;28;20031;-74
2021/12/26 12:01:34;;;;;;;5.45;4.72;;;1.30;99.90;;;;;;5101923;28;20039;-73
2021/12/26 12:04:15;;;;;;;5.78;4.78;;;1.50;99.90;;;;;;5105469;28;20027;-75
2021/12/26 12:06:41;;;;;;;8.57;4.07;;;1.40;99.90;;;;;;5091350;28;20050;-73
2021/12/26 12:09:26;;;;;;;9.55;5.60;;;1.40;99.90;;;;;;5088943;28;20472;-72
2021/12/26 12:12:05;;;;;;;7.32;4.43;;;1.40;99.90;;;;;;5081314;28;20383;-74
2021/12/26 12:14:52;;;;;;;6.10;4.40;;;1.40;99.90;;;;;;5083266;28;20043;-73
2021/12/26 12:17:28;;;;;;;5.68;3.60;;;1.50;99.90;;;;;;5077728;28;20024;-75
2021/12/26 12:20:14;;;;;;;6.35;5.07;;;1.50;99.90;;;;;;5085795;28;20028;-74
2021/12/26 12:23:08;;;;;;;8.98;5.28;;;1.60;99.90;;;;;;5071818;28;20032;-74
2021/12/26 12:25:38;;;;;;;12.23;7.22;;;1.60;99.90;;;;;;5078993;28;20667;-75
2021/12/26 12:28:22;;;;;;;11.98;7.03;;;1.60;99.90;;;;;;5077513;28;20016;-75
2021/12/26 12:30:51;;;;;;;18.52;8.65;;;1.70;99.90;;;;;;5089751;28;20441;-75
2021/12/26 12:33:28;;;;;;;23.15;8.85;;;1.70;99.90;;;;;;5091681;28;20154;-74
2021/12/26 12:35:56;;;;;;;12.30;7.10;;;1.70;99.90;;;;;;5090535;28;20032;-75
2021/12/26 12:38:33;;;;;;;26.25;11.57;;;1.80;99.90;;;;;;5073108;28;20041;-75
2021/12/26 12:40:59;;;;;;;14.63;7.30;;;1.80;99.90;;;;;;5072812;28;20024;-75
2021/12/26 12:43:27;;;;;;;12.45;8.05;;;1.70;99.90;;;;;;5093057;28;20024;-75
2021/12/26 12:45:53;;;;;;;8.20;5.63;;;1.80;99.90;;;;;;5093689;28;20013;-75
2021/12/26 12:48:32;;;;;;;7.43;5.97;;;1.80;99.90;;;;;;5092887;28;20034;-74
2021/12/26 12:51:18;;;;;;;7.85;5.53;;;1.90;99.90;;;;;;5099032;28;20024;-75
2021/12/26 12:53:55;;;;;;;7.20;5.78;;;1.80;99.90;;;;;;5079803;28;20112;-76
2021/12/26 12:56:29;;;;;;;8.52;4.95;;;1.90;99.90;;;;;;5078525;28;20499;-74
2021/12/26 12:59:19;;;;;;;5.93;4.88;;;2.00;99.90;;;;;;5097048;28;20028;-75
2021/12/26 13:01:51;;;;;;;11.63;5.53;;;1.90;99.90;;;;;;5095464;28;20036;-75